createdAt,value
2022-07-27T00:01:25.584Z,101219.44
2022-07-27T00:03:52.188Z,101220.28
2022-07-27T00:06:18.791Z,101222.69
2022-07-27T00:08:45.475Z,101224.69
2022-07-27T00:11:12.374Z,101215.00
2022-07-27T00:13:39.167Z,101220.25
2022-07-27T00:16:06.778Z,101226.31
2022-07-27T00:18:33.414Z,101219.84
2022-07-27T00:21:00.197Z,101229.56
2022-07-27T00:23:26.763Z,101230.34
2022-07-27T00:25:53.442Z,101224.31
2022-07-27T00:28:20.202Z,101223.88
2022-07-27T00:30:46.858Z,101227.13
2022-07-27T00:33:17.188Z,101223.06
2022-07-27T00:35:44.426Z,101216.59
2022-07-27T00:38:10.904Z,101229.13
2022-07-27T00:40:37.596Z,101228.75
2022-07-27T00:43:04.203Z,101221.44
2022-07-27T00:45:30.929Z,101222.28
2022-07-27T00:47:57.497Z,101222.66
2022-07-27T00:50:24.950Z,101227.09
2022-07-27T00:52:51.911Z,101221.84
2022-07-27T00:55:18.478Z,101228.72
2022-07-27T00:57:58.384Z,101228.72
2022-07-27T01:00:29.167Z,101224.66
2022-07-27T01:02:57.652Z,101227.91
2022-07-27T01:05:35.935Z,101224.28
2022-07-27T01:08:03.346Z,101225.06
2022-07-27T01:10:29.888Z,101221.44
2022-07-27T01:12:56.582Z,101221.84
2022-07-27T01:15:23.118Z,101227.50
2022-07-27T01:17:49.651Z,101223.88
2022-07-27T01:20:16.185Z,101225.06
2022-07-27T01:22:42.815Z,101221.06
2022-07-27T01:25:10.218Z,101217.81
2022-07-27T01:27:36.988Z,101221.44
2022-07-27T01:30:25.160Z,101214.97
2022-07-27T01:32:52.412Z,101215.78
2022-07-27T01:35:19.087Z,101207.72
2022-07-27T01:37:48.135Z,101212.56
2022-07-27T01:40:14.945Z,101208.50
2022-07-27T01:42:41.737Z,101210.91
2022-07-27T01:45:09.070Z,101216.19
2022-07-27T01:47:35.604Z,101211.75
2022-07-27T01:50:02.226Z,101218.63
2022-07-27T01:52:29.037Z,101214.16
2022-07-27T01:54:55.504Z,101206.47
2022-07-27T01:57:22.059Z,101212.13
2022-07-27T01:59:48.768Z,101206.47
2022-07-27T02:02:16.216Z,101212.53
2022-07-27T02:04:42.958Z,101218.59
2022-07-27T02:07:09.506Z,101214.53
2022-07-27T02:09:36.048Z,101223.00
2022-07-27T02:12:21.679Z,101214.91
2022-07-27T02:14:48.248Z,101225.78
2022-07-27T02:17:14.774Z,101219.75
2022-07-27T02:19:41.790Z,101219.72
2022-07-27T02:22:08.948Z,101219.31
2022-07-27T02:24:37.803Z,101218.09
2022-07-27T02:27:04.511Z,101220.53
2022-07-27T02:29:31.109Z,101224.94
2022-07-27T02:31:57.647Z,101223.75
2022-07-27T02:34:24.132Z,101226.53
2022-07-27T02:36:50.631Z,101224.50
2022-07-27T02:39:17.130Z,101226.09
2022-07-27T02:41:46.384Z,101225.28
2022-07-27T02:44:14.611Z,101223.63
2022-07-27T02:46:41.750Z,101222.81
2022-07-27T02:49:08.827Z,101223.19
2022-07-27T02:51:36.245Z,101216.75
2022-07-27T02:54:06.026Z,101221.94
2022-07-27T02:56:32.561Z,101225.13
2022-07-27T02:58:59.054Z,101221.50
2022-07-27T03:01:25.614Z,101222.69
2022-07-27T03:03:52.536Z,101221.03
2022-07-27T03:06:19.041Z,101221.00
2022-07-27T03:08:45.554Z,101219.34
2022-07-27T03:11:12.067Z,101229.41
2022-07-27T03:13:38.600Z,101227.38
2022-07-27T03:16:05.289Z,101226.94
2022-07-27T03:18:31.843Z,101220.91
2022-07-27T03:20:58.434Z,101222.53
2022-07-27T03:23:25.100Z,101225.34
2022-07-27T03:25:51.563Z,101221.31
2022-07-27T03:28:18.068Z,101220.13
2022-07-27T03:30:44.632Z,101225.38
2022-07-27T03:33:11.188Z,101227.78
2022-07-27T03:35:37.716Z,101223.75
2022-07-27T03:38:04.273Z,101223.38
2022-07-27T03:40:32.855Z,101223.38
2022-07-27T03:43:00.011Z,101232.66
2022-07-27T03:45:26.951Z,101232.66
2022-07-27T03:47:53.533Z,101231.44
2022-07-27T03:50:20.415Z,101236.28
2022-07-27T03:52:46.935Z,101234.69
2022-07-27T03:55:13.458Z,101235.84
2022-07-27T03:57:40.134Z,101234.25
2022-07-27T04:00:08.741Z,101235.44
2022-07-27T04:02:35.233Z,101234.66
2022-07-27T04:05:01.805Z,101234.25
2022-07-27T04:07:28.790Z,101231.41
2022-07-27T04:09:55.312Z,101235.41
2022-07-27T04:12:21.809Z,101239.03
2022-07-27T04:14:48.567Z,101237.38
2022-07-27T04:17:56.470Z,101227.25
2022-07-27T04:20:01.778Z,101236.09
2022-07-27T04:22:28.385Z,101243.31
2022-07-27T04:24:54.915Z,101246.50
2022-07-27T04:27:21.814Z,101254.97
2022-07-27T04:29:48.349Z,101252.91
2022-07-27T04:32:14.916Z,101261.34
2022-07-27T04:34:41.445Z,101266.19
2022-07-27T04:37:07.940Z,101266.13
2022-07-27T04:39:34.447Z,101256.06
2022-07-27T04:42:01.059Z,101256.88
2022-07-27T04:44:27.590Z,101263.31
2022-07-27T04:46:54.075Z,101260.13
2022-07-27T04:49:20.743Z,101263.75
2022-07-27T04:51:47.308Z,101269.41
2022-07-27T04:54:13.930Z,101267.41
2022-07-27T04:56:40.477Z,101260.56
2022-07-27T04:59:07.034Z,101262.59
2022-07-27T05:01:35.453Z,101257.75
2022-07-27T05:04:04.035Z,101260.97
2022-07-27T05:06:30.878Z,101263.44
2022-07-27T05:08:57.408Z,101269.13
2022-07-27T05:11:23.908Z,101266.69
2022-07-27T05:13:50.576Z,101278.81
2022-07-27T05:16:17.193Z,101280.84
2022-07-27T05:18:45.184Z,101269.59
2022-07-27T05:21:11.863Z,101278.50
2022-07-27T05:23:38.394Z,101276.53
2022-07-27T05:26:04.950Z,101272.94
2022-07-27T05:28:31.534Z,101281.41
2022-07-27T05:30:58.052Z,101286.69
2022-07-27T05:33:25.646Z,101278.22
2022-07-27T05:35:52.474Z,101278.22
2022-07-27T05:38:18.960Z,101281.44
2022-07-27T05:40:46.606Z,101293.13
2022-07-27T05:43:13.419Z,101288.69
2022-07-27T05:45:40.150Z,101296.81
2022-07-27T05:48:06.777Z,101290.75
2022-07-27T05:50:33.291Z,101296.81
2022-07-27T05:53:00.641Z,101294.44
2022-07-27T05:55:27.275Z,101301.34
2022-07-27T05:57:53.825Z,101300.56
2022-07-27T06:00:20.666Z,101306.63
2022-07-27T06:02:47.183Z,101306.66
2022-07-27T06:05:17.535Z,101307.06
2022-07-27T06:08:00.014Z,101305.47
2022-07-27T06:10:28.620Z,101313.56
2022-07-27T06:12:55.235Z,101312.41
2022-07-27T06:15:23.097Z,101314.44
2022-07-27T06:17:52.648Z,101311.63
2022-07-27T06:20:20.631Z,101310.84
2022-07-27T06:22:49.601Z,101314.88
2022-07-27T06:25:17.367Z,101316.50
2022-07-27T06:27:44.835Z,101316.13
2022-07-27T06:30:13.117Z,101309.66
2022-07-27T06:32:39.695Z,101318.53
2022-07-27T06:35:10.646Z,101320.56
2022-07-27T06:37:43.986Z,101320.59
2022-07-27T06:40:14.501Z,101316.56
2022-07-27T06:42:41.694Z,101315.41
2022-07-27T06:45:09.325Z,101321.88
2022-07-27T06:47:36.798Z,101319.09
2022-07-27T06:50:16.217Z,101316.31
2022-07-27T06:52:42.783Z,101312.69
2022-07-27T06:55:09.583Z,101305.84
2022-07-27T06:57:36.085Z,101311.97
2022-07-27T07:00:02.704Z,101313.16
2022-07-27T07:02:29.233Z,101314.00
2022-07-27T07:04:55.718Z,101326.50
2022-07-27T07:07:22.798Z,101331.38
2022-07-27T07:09:49.342Z,101323.69
2022-07-27T07:12:15.976Z,101323.72
2022-07-27T07:14:42.662Z,101328.56
2022-07-27T07:17:09.160Z,101318.06
2022-07-27T07:19:35.672Z,101324.56
2022-07-27T07:22:02.203Z,101323.75
2022-07-27T07:24:30.160Z,101330.63
2022-07-27T07:26:56.719Z,101336.31
2022-07-27T07:29:23.226Z,101333.94
2022-07-27T07:31:49.753Z,101334.34
2022-07-27T07:34:16.339Z,101333.56
2022-07-27T07:36:43.137Z,101329.47
2022-07-27T07:39:09.787Z,101328.69
2022-07-27T07:41:37.500Z,101335.97
2022-07-27T07:44:04.235Z,101337.59
2022-07-27T07:46:31.134Z,101335.56
2022-07-27T07:48:57.722Z,101330.72
2022-07-27T07:51:24.279Z,101329.44
2022-07-27T07:53:50.776Z,101324.13
2022-07-27T07:56:17.567Z,101326.00
2022-07-27T07:58:44.066Z,101336.00
2022-07-27T08:01:12.285Z,101326.50
2022-07-27T08:03:48.701Z,101325.50
2022-07-27T08:06:17.604Z,101322.38
2022-07-27T08:08:44.189Z,101319.69
2022-07-27T08:11:10.803Z,101326.25
2022-07-27T08:13:37.422Z,101320.91
2022-07-27T08:16:04.297Z,101328.88
2022-07-27T08:18:31.046Z,101325.50
2022-07-27T08:20:57.674Z,101330.63
2022-07-27T08:23:24.175Z,101333.78
2022-07-27T08:25:50.689Z,101329.63
2022-07-27T08:28:17.207Z,101315.75
2022-07-27T08:30:44.793Z,101314.72
2022-07-27T08:33:11.617Z,101319.50
2022-07-27T08:35:38.402Z,101321.44
2022-07-27T08:38:07.399Z,101322.16
2022-07-27T08:40:44.346Z,101321.19
2022-07-27T08:43:18.935Z,101318.88
2022-07-27T08:45:57.171Z,101327.44
2022-07-27T08:48:30.659Z,101324.06
2022-07-27T08:50:57.639Z,101326.28
2022-07-27T08:53:24.667Z,101332.94
2022-07-27T08:55:51.287Z,101327.72
2022-07-27T08:58:17.969Z,101334.53
2022-07-27T09:00:49.853Z,101335.28
2022-07-27T09:03:20.954Z,101338.38
2022-07-27T09:05:53.574Z,101335.34
2022-07-27T09:08:26.409Z,101327.78
2022-07-27T09:10:55.309Z,101338.94
2022-07-27T09:13:29.377Z,101341.91
2022-07-27T09:18:45.824Z,101343.28
2022-07-27T09:21:30.559Z,101343.41
2022-07-27T09:24:45.632Z,101339.78
2022-07-27T09:27:04.233Z,101334.47
2022-07-27T09:29:35.098Z,101331.19
2022-07-27T09:32:14.672Z,101328.72
2022-07-27T09:34:41.217Z,101330.63
2022-07-27T09:37:08.728Z,101334.13
2022-07-27T09:39:35.258Z,101329.94
2022-07-27T09:42:02.791Z,101340.38
2022-07-27T09:44:43.168Z,101333.78
2022-07-27T09:47:28.903Z,101335.75
2022-07-27T09:49:58.121Z,101336.88
2022-07-27T09:52:26.145Z,101341.66
2022-07-27T09:54:53.415Z,101338.28
2022-07-27T09:57:20.263Z,101340.66
2022-07-27T09:59:47.115Z,101342.22
2022-07-27T10:02:14.445Z,101337.31
2022-07-27T10:04:41.572Z,101331.66
2022-07-27T10:07:12.718Z,101337.47
2022-07-27T10:09:40.025Z,101346.91
2022-07-27T10:12:06.876Z,101335.25
2022-07-27T10:14:33.522Z,101341.81
2022-07-27T10:17:00.592Z,101347.16
2022-07-27T10:19:41.274Z,101358.66
2022-07-27T10:22:07.816Z,101345.25
2022-07-27T10:24:37.168Z,101351.41
2022-07-27T10:27:27.969Z,101348.66
2022-07-27T10:29:55.723Z,101339.22
2022-07-27T10:32:35.251Z,101346.88
2022-07-27T10:35:02.040Z,101345.94
2022-07-27T10:37:31.161Z,101339.81
2022-07-27T10:40:25.928Z,101342.59
2022-07-27T10:43:07.769Z,101347.94
2022-07-27T10:45:52.640Z,101350.34
2022-07-27T10:48:47.708Z,101343.88
2022-07-27T10:51:18.572Z,101342.28
2022-07-27T10:56:49.128Z,101340.38
2022-07-27T11:00:06.241Z,101337.16
2022-07-27T11:02:43.313Z,101336.75
2022-07-27T11:05:42.603Z,101337.97
2022-07-27T11:08:35.554Z,101338.81
2022-07-27T11:10:47.565Z,101337.22
2022-07-27T11:13:14.497Z,101337.31
2022-07-27T11:15:55.980Z,101333.75
2022-07-27T11:18:28.369Z,101332.09
2022-07-27T11:21:14.826Z,101336.94
2022-07-27T11:23:50.898Z,101326.69
2022-07-27T11:26:18.333Z,101330.38
2022-07-27T11:28:45.146Z,101331.53
2022-07-27T11:31:15.163Z,101326.25
2022-07-27T11:34:00.735Z,101333.91
2022-07-27T11:36:50.057Z,101329.78
2022-07-27T11:39:54.409Z,101328.47
2022-07-27T11:42:12.526Z,101321.84
2022-07-27T11:44:46.216Z,101326.25
2022-07-27T11:47:17.537Z,101320.06
2022-07-27T11:49:44.201Z,101315.88
2022-07-27T11:52:10.944Z,101314.97
2022-07-27T11:54:42.009Z,101313.69
2022-07-27T11:57:15.642Z,101306.25
2022-07-27T11:59:44.317Z,101312.72
2022-07-27T12:02:20.288Z,101307.81
2022-07-27T12:04:49.275Z,101311.03
2022-07-27T12:07:18.809Z,101305.34
2022-07-27T12:09:46.593Z,101305.78
2022-07-27T12:12:21.546Z,101313.53
2022-07-27T12:14:52.156Z,101308.19
2022-07-27T12:17:25.650Z,101308.19
2022-07-27T12:19:55.256Z,101304.94
2022-07-27T12:22:43.581Z,101295.59
2022-07-27T12:25:16.538Z,101295.41
2022-07-27T12:27:59.799Z,101292.47
2022-07-27T12:30:34.536Z,101285.91
2022-07-27T12:33:03.125Z,101292.75
2022-07-27T12:35:36.242Z,101289.00
2022-07-27T12:38:08.807Z,101290.84
2022-07-27T12:40:44.423Z,101279.00
2022-07-27T12:43:16.149Z,101278.09
2022-07-27T12:45:43.242Z,101280.44
2022-07-27T12:48:27.624Z,101282.47
2022-07-27T12:51:22.086Z,101291.03
2022-07-27T12:53:48.594Z,101277.22
2022-07-27T12:56:15.142Z,101286.31
2022-07-27T12:59:01.388Z,101286.97
2022-07-27T13:01:28.128Z,101288.69
2022-07-27T13:03:54.739Z,101284.75
2022-07-27T13:06:21.371Z,101278.00
2022-07-27T13:08:48.111Z,101278.53
2022-07-27T13:11:14.775Z,101264.41
2022-07-27T13:13:41.305Z,101268.13
2022-07-27T13:16:07.886Z,101264.03
2022-07-27T13:18:34.442Z,101262.75
2022-07-27T13:21:01.600Z,101256.13
2022-07-27T13:23:28.865Z,101254.31
2022-07-27T13:25:55.382Z,101253.41
2022-07-27T13:28:22.317Z,101251.25
2022-07-27T13:30:49.174Z,101265.00
2022-07-27T13:33:15.727Z,101269.41
2022-07-27T13:35:42.901Z,101269.81
2022-07-27T13:38:14.534Z,101258.75
2022-07-27T13:40:45.144Z,101259.19
2022-07-27T13:43:12.345Z,101254.72
2022-07-27T13:45:42.781Z,101253.91
2022-07-27T13:48:11.909Z,101262.56
2022-07-27T13:50:39.924Z,101261.38
2022-07-27T13:53:06.479Z,101264.28
2022-07-27T13:55:34.356Z,101264.72
2022-07-27T13:58:00.878Z,101263.63
2022-07-27T14:00:27.409Z,101265.41
2022-07-27T14:02:53.992Z,101255.00
2022-07-27T14:05:20.769Z,101249.88
2022-07-27T14:07:47.257Z,101255.31
2022-07-27T14:10:32.229Z,101239.59
2022-07-27T14:13:08.242Z,101244.16
2022-07-27T14:15:54.355Z,101247.00
2022-07-27T14:18:26.741Z,101246.59
2022-07-27T14:20:54.648Z,101246.16
2022-07-27T14:23:21.274Z,101251.03
2022-07-27T14:25:47.915Z,101246.16
2022-07-27T14:28:14.648Z,101244.56
2022-07-27T14:30:41.258Z,101241.69
2022-07-27T14:33:07.740Z,101252.28
2022-07-27T14:35:39.929Z,101250.69
2022-07-27T14:38:08.504Z,101255.97
2022-07-27T14:40:35.312Z,101258.81
2022-07-27T14:43:01.846Z,101247.06
2022-07-27T14:45:44.554Z,101251.47
2022-07-27T14:48:23.024Z,101255.06
2022-07-27T14:50:55.172Z,101263.81
2022-07-27T14:53:21.764Z,101259.13
2022-07-27T14:55:48.358Z,101244.66
2022-07-27T14:58:14.883Z,101242.03
2022-07-27T15:00:41.488Z,101252.81
2022-07-27T15:03:08.133Z,101253.00
2022-07-27T15:05:50.266Z,101245.50
2022-07-27T15:08:20.606Z,101241.63
2022-07-27T15:10:48.747Z,101248.00
2022-07-27T15:13:15.797Z,101234.06
2022-07-27T15:15:42.414Z,101230.25
2022-07-27T15:18:09.039Z,101232.63
2022-07-27T15:20:35.915Z,101222.69
2022-07-27T15:23:06.639Z,101226.97
2022-07-27T15:25:33.828Z,101227.69
2022-07-27T15:28:01.090Z,101220.22
2022-07-27T15:30:27.660Z,101218.91
2022-07-27T15:32:54.314Z,101221.69
2022-07-27T15:35:20.840Z,101211.53
2022-07-27T15:37:53.909Z,101214.44
2022-07-27T15:40:37.134Z,101212.19
2022-07-27T15:43:13.009Z,101207.97
2022-07-27T15:45:41.279Z,101214.25
2022-07-27T15:48:09.594Z,101216.06
2022-07-27T15:50:37.539Z,101214.59
2022-07-27T15:53:05.627Z,101211.88
2022-07-27T15:55:32.874Z,101214.78
2022-07-27T15:57:59.479Z,101206.34
2022-07-27T16:00:26.275Z,101209.59
2022-07-27T16:02:55.565Z,101212.91
2022-07-27T16:05:23.893Z,101208.44
2022-07-27T16:07:50.608Z,101203.09
2022-07-27T16:10:17.140Z,101203.47
2022-07-27T16:12:43.694Z,101198.47
2022-07-27T16:15:11.011Z,101191.47
2022-07-27T16:17:37.592Z,101185.72
2022-07-27T16:20:04.766Z,101194.56
2022-07-27T16:22:33.412Z,101186.38
2022-07-27T16:25:00.331Z,101178.63
2022-07-27T16:27:28.578Z,101183.13
2022-07-27T16:29:55.136Z,101190.91
2022-07-27T16:32:21.676Z,101192.94
2022-07-27T16:34:48.150Z,101189.66
2022-07-27T16:37:14.684Z,101184.75
2022-07-27T16:39:41.325Z,101181.03
2022-07-27T16:42:07.838Z,101184.69
2022-07-27T16:44:36.065Z,101191.97
2022-07-27T16:47:05.552Z,101190.75
2022-07-27T16:49:33.647Z,101183.44
2022-07-27T16:52:04.100Z,101196.53
2022-07-27T16:54:34.139Z,101195.00
2022-07-27T16:57:03.776Z,101191.06
2022-07-27T16:59:30.394Z,101198.06
2022-07-27T17:01:56.869Z,101189.22
2022-07-27T17:04:24.046Z,101197.03
2022-07-27T17:06:50.597Z,101181.66
2022-07-27T17:09:18.173Z,101185.09
2022-07-27T17:11:44.685Z,101182.81
2022-07-27T17:14:14.437Z,101189.84
2022-07-27T17:16:41.378Z,101191.66
2022-07-27T17:19:07.926Z,101186.94
2022-07-27T17:21:34.465Z,101192.41
2022-07-27T17:24:01.004Z,101182.34
2022-07-27T17:26:27.548Z,101185.34
2022-07-27T17:28:54.104Z,101183.41
2022-07-27T17:31:21.715Z,101172.53
2022-07-27T17:33:48.443Z,101176.22
2022-07-27T17:36:15.742Z,101178.28
2022-07-27T17:38:47.164Z,101175.91
2022-07-27T17:41:14.824Z,101181.25
2022-07-27T17:43:41.739Z,101183.34
2022-07-27T17:46:10.254Z,101182.59
2022-07-27T17:48:37.816Z,101183.03
2022-07-27T17:51:05.802Z,101181.81
2022-07-27T17:53:32.594Z,101182.75
2022-07-27T17:55:59.171Z,101184.44
2022-07-27T17:58:29.942Z,101178.44
2022-07-27T18:00:57.133Z,101188.25
2022-07-27T18:03:23.651Z,101187.50
2022-07-27T18:05:50.240Z,101179.38
2022-07-27T18:08:16.772Z,101183.09
2022-07-27T18:10:43.306Z,101185.13
2022-07-27T18:13:09.889Z,101183.94
2022-07-27T18:15:48.452Z,101191.69
2022-07-27T18:18:16.019Z,101187.63
2022-07-27T18:20:44.221Z,101186.41
2022-07-27T18:23:10.776Z,101190.06
2022-07-27T18:25:37.323Z,101193.38
2022-07-27T18:28:04.466Z,101191.00
2022-07-27T18:30:30.977Z,101196.31
2022-07-27T18:32:57.462Z,101191.09
2022-07-27T18:35:24.153Z,101194.84
2022-07-27T18:37:50.905Z,101194.50
2022-07-27T18:40:17.477Z,101199.84
2022-07-27T18:42:44.455Z,101204.38
2022-07-27T18:45:11.246Z,101202.78
2022-07-27T18:47:38.386Z,101207.34
2022-07-27T18:50:07.022Z,101218.72
2022-07-27T18:52:34.516Z,101219.19
2022-07-27T18:55:01.185Z,101210.31
2022-07-27T18:57:28.646Z,101216.44
2022-07-27T18:59:55.141Z,101212.81
2022-07-27T19:02:23.423Z,101216.91
2022-07-27T19:04:54.003Z,101216.97
2022-07-27T19:07:21.756Z,101219.81
2022-07-27T19:09:50.545Z,101225.53
2022-07-27T19:12:17.131Z,101223.94
2022-07-27T19:14:43.784Z,101227.22
2022-07-27T19:17:16.639Z,101225.63
2022-07-27T19:19:43.229Z,101231.31
2022-07-27T19:22:09.786Z,101234.59
2022-07-27T19:24:36.343Z,101237.47
2022-07-27T19:27:03.511Z,101230.19
2022-07-27T19:29:30.138Z,101239.97
2022-07-27T19:31:56.629Z,101236.75
2022-07-27T19:34:23.197Z,101236.41
2022-07-27T19:36:49.898Z,101239.69
2022-07-27T19:39:16.641Z,101244.97
2022-07-27T19:41:43.187Z,101245.38
2022-07-27T19:44:09.996Z,101245.03
2022-07-27T19:46:37.342Z,101247.06
2022-07-27T19:49:04.195Z,101249.91
2022-07-27T19:51:30.832Z,101252.75
2022-07-27T19:53:57.406Z,101255.63
2022-07-27T19:56:23.912Z,101258.06
2022-07-27T19:58:50.520Z,101259.72
2022-07-27T20:01:17.139Z,101266.56
2022-07-27T20:03:51.958Z,101275.94
2022-07-27T20:06:19.221Z,101277.53
2022-07-27T20:08:45.815Z,101276.34
2022-07-27T20:11:12.410Z,101274.75
2022-07-27T20:13:40.201Z,101280.00
2022-07-27T20:16:06.780Z,101280.03
2022-07-27T20:18:35.259Z,101279.63
2022-07-27T20:21:02.270Z,101284.50
2022-07-27T20:23:29.184Z,101276.81
2022-07-27T20:25:55.716Z,101270.34
2022-07-27T20:28:22.238Z,101283.69
2022-07-27T20:30:48.830Z,101275.59
2022-07-27T20:33:19.522Z,101273.19
2022-07-27T20:35:46.136Z,101276.03
2022-07-27T20:38:12.828Z,101270.38
2022-07-27T20:40:39.398Z,101274.44
2022-07-27T20:43:05.913Z,101286.59
2022-07-27T20:45:32.496Z,101287.00
2022-07-27T20:47:59.066Z,101287.41
2022-07-27T20:50:25.643Z,101285.78
2022-07-27T20:52:52.166Z,101291.88
2022-07-27T20:55:18.692Z,101292.66
2022-07-27T20:57:45.245Z,101291.47
2022-07-27T21:00:12.535Z,101293.88
2022-07-27T21:02:39.195Z,101290.25
2022-07-27T21:05:07.586Z,101290.25
2022-07-27T21:07:34.356Z,101291.88
2022-07-27T21:10:00.952Z,101291.06
2022-07-27T21:12:27.722Z,101295.09
2022-07-27T21:14:54.293Z,101289.84
2022-07-27T21:17:20.803Z,101297.91
2022-07-27T21:19:47.418Z,101300.75
2022-07-27T21:22:13.936Z,101297.91
2022-07-27T21:24:40.491Z,101301.16
2022-07-27T21:27:07.105Z,101301.13
2022-07-27T21:29:35.425Z,101304.75
2022-07-27T21:32:01.902Z,101305.16
2022-07-27T21:34:29.186Z,101313.63
2022-07-27T21:36:55.763Z,101310.81
2022-07-27T21:39:22.251Z,101309.19
2022-07-27T21:41:48.778Z,101314.44
2022-07-27T21:44:15.751Z,101311.97
2022-07-27T21:46:42.895Z,101308.34
2022-07-27T21:49:10.341Z,101311.56
2022-07-27T21:51:37.078Z,101312.34
2022-07-27T21:54:03.737Z,101315.16
2022-07-27T21:56:30.318Z,101312.69
2022-07-27T21:58:56.940Z,101311.44
2022-07-27T22:01:23.567Z,101310.56
2022-07-27T22:03:50.259Z,101303.28
2022-07-27T22:06:17.636Z,101304.47
2022-07-27T22:08:44.377Z,101304.84
2022-07-27T22:11:10.895Z,101310.09
2022-07-27T22:13:37.807Z,101311.25
2022-07-27T22:16:05.071Z,101302.34
2022-07-27T22:18:31.604Z,101307.56
2022-07-27T22:20:58.646Z,101306.75
2022-07-27T22:23:25.323Z,101312.75
2022-07-27T22:25:51.999Z,101315.56
2022-07-27T22:28:18.543Z,101313.50
2022-07-27T22:31:20.558Z,101316.34
2022-07-27T22:33:32.759Z,101310.66
2022-07-27T22:35:59.231Z,101303.34
2022-07-27T22:38:25.722Z,101309.75
2022-07-27T22:40:55.554Z,101313.38
2022-07-27T22:43:22.523Z,101310.53
2022-07-27T22:45:49.944Z,101325.41
2022-07-27T22:48:16.570Z,101318.94
2022-07-27T22:50:45.493Z,101315.28
2022-07-27T22:53:12.152Z,101322.09
2022-07-27T22:55:38.922Z,101319.69
2022-07-27T22:58:05.534Z,101314.44
2022-07-27T23:00:32.244Z,101323.31
2022-07-27T23:02:58.946Z,101318.84
2022-07-27T23:05:25.563Z,101320.44
2022-07-27T23:07:52.439Z,101320.00
2022-07-27T23:10:37.478Z,101321.63
2022-07-27T23:13:04.010Z,101324.44
2022-07-27T23:15:31.423Z,101321.63
2022-07-27T23:17:57.999Z,101323.63
2022-07-27T23:20:24.512Z,101318.34
2022-07-27T23:22:51.101Z,101315.97
2022-07-27T23:25:17.568Z,101315.16
2022-07-27T23:27:44.076Z,101323.19
2022-07-27T23:30:10.947Z,101333.31
2022-07-27T23:32:37.427Z,101327.66
2022-07-27T23:35:04.414Z,101334.13
2022-07-27T23:37:30.963Z,101325.66
2022-07-27T23:39:57.476Z,101325.66
2022-07-27T23:42:24.067Z,101321.19
2022-07-27T23:44:50.571Z,101323.19
2022-07-27T23:47:18.779Z,101322.38
2022-07-27T23:49:45.298Z,101332.06
2022-07-27T23:52:11.813Z,101322.78
2022-07-27T23:54:38.391Z,101323.19
2022-07-27T23:57:05.199Z,101333.22
2022-07-27T23:59:31.770Z,101314.22
